Round Grove, Illinois
Current Conditions -  °F | °C
As of 4:15 PM on Sunday 25 Jan 2015 (Local Time) from KSQI Reporting Station
Overcast Overcast  
Wind Chill: 14°   Ceiling: 4600
Heat Index: 27°   Visibility: 10mi
Dew Point: 16°   Wind: 17mph
Humidity: 64%   Direction: 30°NNE
Pressure: 29.93"   Gusts: 23mph
Location:  41.8285°N, 89.9656°W
Report Text: KSQI 252215Z AUTO 03015G20KT 10SM BKN046 OVC055 M03/M09 A2993 RMK AO1
Loading
Personal Weather Stations






























Interactive Weather Map New forecast layout! Learn more

10-Day Weather Forecast

Advertisements
Track Severe Weather on mobile